Targu-Mures, Romania
Current Conditions -  °F | °C
As of 10:00 AM on Friday 24 Oct 2014 (Local Time) from LRTM Reporting Station
Broken Clouds Broken Clouds  
Wind Chill: 45°   Ceiling: 4000
Heat Index: 48°   Visibility: 6mi
Dew Point: 46°   Wind: 7mph
Humidity: 93%   Direction: 80°E
Pressure: 29.94"   Gusts: NA
Location:  46.55°N, 24.56°E
Report Text: LRTM 240700Z 08006KT 9999 BKN040 09/08 Q1014 R07/29//95
Loading
Personal Weather Stations






























Interactive Weather Map
Tropical Storm Tracking
New forecast layout! Learn more

10-Day Weather Forecast

Advertisements
Track Severe Weather on mobile